createdAt,value
2018-11-25T00:00:33.402Z,13.20
2018-11-25T00:03:02.894Z,15.40
2018-11-25T00:05:32.750Z,13.30
2018-11-25T00:08:02.221Z,14.93
2018-11-25T00:10:34.519Z,12.57
2018-11-25T00:13:03.953Z,12.87
2018-11-25T00:15:33.278Z,11.70
2018-11-25T00:18:03.427Z,13.37
2018-11-25T00:20:32.782Z,12.30
2018-11-25T00:23:02.151Z,14.17
2018-11-25T00:25:31.503Z,14.13
2018-11-25T00:28:00.834Z,14.70
2018-11-25T00:30:30.454Z,13.60
2018-11-25T00:33:00.190Z,14.73
2018-11-25T00:35:29.555Z,13.87
2018-11-25T00:37:58.878Z,14.30
2018-11-25T00:40:28.333Z,16.03
2018-11-25T00:42:57.701Z,13.93
2018-11-25T00:45:27.742Z,15.43
2018-11-25T00:47:57.205Z,14.87
2018-11-25T00:50:26.674Z,15.43
2018-11-25T00:52:56.017Z,14.77
2018-11-25T00:55:25.376Z,67.90
2018-11-25T00:57:54.735Z,20.00
2018-11-25T01:00:24.059Z,21.67
2018-11-25T01:02:53.501Z,30.40
2018-11-25T01:05:22.834Z,19.50
2018-11-25T01:07:52.206Z,18.37
2018-11-25T01:10:22.535Z,18.40
2018-11-25T01:12:56.954Z,20.13
2018-11-25T01:15:26.343Z,19.00
2018-11-25T01:17:55.661Z,19.93
2018-11-25T01:20:32.247Z,22.07
2018-11-25T01:23:01.585Z,19.57
2018-11-25T01:25:33.314Z,17.17
2018-11-25T01:28:03.439Z,26.83
2018-11-25T01:30:33.984Z,27.53
2018-11-25T01:33:04.845Z,46.13
2018-11-25T01:35:34.706Z,29.17
2018-11-25T01:38:04.149Z,24.40
2018-11-25T01:40:33.538Z,15.43
2018-11-25T01:43:03.467Z,16.30
2018-11-25T01:45:32.806Z,20.30
2018-11-25T01:48:02.114Z,18.67
2018-11-25T01:50:31.480Z,22.50
2018-11-25T01:53:05.694Z,32.87
2018-11-25T01:55:35.101Z,28.50
2018-11-25T01:58:04.782Z,37.87
2018-11-25T02:00:34.345Z,19.97
2018-11-25T02:03:04.346Z,30.90
2018-11-25T02:05:33.750Z,26.73
2018-11-25T02:08:03.666Z,28.83
2018-11-25T02:10:33.310Z,19.90
2018-11-25T02:13:02.696Z,26.33
2018-11-25T02:15:32.026Z,17.50
2018-11-25T02:18:01.379Z,19.17
2018-11-25T02:20:30.738Z,26.23
2018-11-25T02:23:00.086Z,46.07
2018-11-25T02:25:29.898Z,29.87
2018-11-25T02:27:59.214Z,26.97
2018-11-25T02:30:29.298Z,38.13
2018-11-25T02:32:58.802Z,31.43
2018-11-25T02:35:28.116Z,17.17
2018-11-25T02:37:57.439Z,23.60
2018-11-25T02:40:30.838Z,48.13
2018-11-25T02:43:00.195Z,23.43
2018-11-25T02:45:29.511Z,29.97
2018-11-25T02:47:58.811Z,36.87
2018-11-25T02:50:29.290Z,38.37
2018-11-25T02:53:00.541Z,29.93
2018-11-25T02:55:29.925Z,21.03
2018-11-25T02:57:59.260Z,21.33
2018-11-25T03:00:28.639Z,28.83
2018-11-25T03:02:58.738Z,28.97
2018-11-25T03:08:46.411Z,27.07
2018-11-25T03:11:15.749Z,21.30
2018-11-25T03:13:45.062Z,21.60
2018-11-25T03:16:14.418Z,18.47
2018-11-25T03:18:43.753Z,14.60
2018-11-25T03:21:27.597Z,25.27
2018-11-25T03:23:56.925Z,12.57
2018-11-25T03:26:26.241Z,24.87
2018-11-25T03:28:55.596Z,28.77
2018-11-25T03:31:24.917Z,16.20
2018-11-25T03:33:54.269Z,18.00
2018-11-25T03:36:23.623Z,19.73
2018-11-25T03:38:52.962Z,17.07
2018-11-25T03:41:22.335Z,17.53
2018-11-25T03:43:51.690Z,22.47
2018-11-25T03:46:21.009Z,20.23
2018-11-25T03:48:50.335Z,30.83
2018-11-25T03:51:19.959Z,21.03
2018-11-25T03:53:49.286Z,23.57
2018-11-25T03:56:18.634Z,21.57
2018-11-25T03:58:47.990Z,24.13
2018-11-25T04:01:17.308Z,24.63
2018-11-25T04:03:46.855Z,19.77
2018-11-25T04:06:16.233Z,22.13
2018-11-25T04:08:50.453Z,24.43
2018-11-25T04:11:19.807Z,24.50
2018-11-25T04:13:49.194Z,21.73
2018-11-25T04:16:19.155Z,22.47
2018-11-25T04:18:48.577Z,20.37
2018-11-25T04:21:17.886Z,22.70
2018-11-25T04:23:47.234Z,25.00
2018-11-25T04:26:16.598Z,27.77
2018-11-25T04:28:45.926Z,20.67
2018-11-25T04:31:17.374Z,25.93
2018-11-25T04:33:46.783Z,23.27
2018-11-25T04:36:16.154Z,36.37
2018-11-25T04:38:45.477Z,32.13
2018-11-25T04:41:14.803Z,21.03
2018-11-25T04:43:44.129Z,19.70
2018-11-25T04:46:13.548Z,15.27
2018-11-25T04:48:42.866Z,15.67
2018-11-25T04:51:12.207Z,16.67
2018-11-25T04:53:41.866Z,19.27
2018-11-25T04:56:11.194Z,18.17
2018-11-25T04:58:40.520Z,18.23
2018-11-25T05:01:09.897Z,20.63
2018-11-25T05:03:39.347Z,19.30
2018-11-25T05:06:08.714Z,22.10
2018-11-25T05:08:38.060Z,22.40
2018-11-25T05:11:07.444Z,27.50
2018-11-25T05:13:36.779Z,16.87
2018-11-25T05:16:06.299Z,18.93
2018-11-25T05:18:35.694Z,17.07
2018-11-25T05:21:05.042Z,18.50
2018-11-25T05:23:34.904Z,15.27
2018-11-25T05:26:04.366Z,21.27
2018-11-25T05:28:33.678Z,17.33
2018-11-25T05:31:03.086Z,19.50
2018-11-25T05:33:32.543Z,17.80
2018-11-25T05:36:02.322Z,31.20
2018-11-25T05:38:31.676Z,23.60
2018-11-25T05:41:00.986Z,19.33
2018-11-25T05:43:30.400Z,18.50
2018-11-25T05:45:59.687Z,22.30
2018-11-25T05:48:29.019Z,15.23
2018-11-25T05:50:58.349Z,19.40
2018-11-25T05:53:27.678Z,20.20
2018-11-25T05:55:56.994Z,21.83
2018-11-25T05:58:26.377Z,19.40
2018-11-25T06:00:55.707Z,19.23
2018-11-25T06:03:25.042Z,19.33
2018-11-25T06:05:54.378Z,21.10
2018-11-25T06:08:23.691Z,21.47
2018-11-25T06:10:53.010Z,17.03
2018-11-25T06:13:22.342Z,21.70
2018-11-25T06:15:51.684Z,21.10
2018-11-25T06:18:21.002Z,23.03
2018-11-25T06:20:50.359Z,27.03
2018-11-25T06:23:19.731Z,19.83
2018-11-25T06:25:49.783Z,19.67
2018-11-25T06:28:19.164Z,21.57
2018-11-25T06:30:48.500Z,23.80
2018-11-25T06:33:17.870Z,18.40
2018-11-25T06:35:47.207Z,19.57
2018-11-25T06:38:16.549Z,19.37
2018-11-25T06:40:45.874Z,17.53
2018-11-25T06:43:15.222Z,17.37
2018-11-25T06:45:44.573Z,17.70
2018-11-25T06:48:13.891Z,18.90
2018-11-25T06:50:43.195Z,20.20
2018-11-25T06:53:12.546Z,20.03
2018-11-25T06:55:41.868Z,23.20
2018-11-25T06:58:11.170Z,18.00
2018-11-25T07:00:40.558Z,27.87
2018-11-25T07:03:10.003Z,19.30
2018-11-25T07:05:39.327Z,18.37
2018-11-25T07:08:08.671Z,18.40
2018-11-25T07:10:37.976Z,16.90
2018-11-25T07:13:07.364Z,17.00
2018-11-25T07:15:36.712Z,19.17
2018-11-25T07:18:06.133Z,18.73
2018-11-25T07:20:35.463Z,15.90
2018-11-25T07:23:05.098Z,16.17
2018-11-25T07:25:34.442Z,17.50
2018-11-25T07:28:17.915Z,17.53
2018-11-25T07:30:33.211Z,16.63
2018-11-25T07:33:02.599Z,15.83
2018-11-25T07:35:32.295Z,17.20
2018-11-25T07:38:01.660Z,16.30
2018-11-25T07:40:30.993Z,16.30
2018-11-25T07:43:00.353Z,16.63
2018-11-25T07:45:30.803Z,15.67
2018-11-25T07:47:59.063Z,15.37
2018-11-25T07:50:28.406Z,16.07
2018-11-25T07:52:57.722Z,15.80
2018-11-25T07:55:27.335Z,15.50
2018-11-25T07:57:58.124Z,17.30
2018-11-25T08:00:27.932Z,15.50
2018-11-25T08:02:57.288Z,15.00
2018-11-25T08:05:34.023Z,15.67
2018-11-25T08:08:03.355Z,16.33
2018-11-25T08:10:32.652Z,17.40
2018-11-25T08:13:01.955Z,15.60
2018-11-25T08:15:39.687Z,18.37
2018-11-25T08:18:09.427Z,16.43
2018-11-25T08:20:38.777Z,20.20
2018-11-25T08:23:08.146Z,17.87
2018-11-25T08:25:37.475Z,17.97
2018-11-25T08:28:06.932Z,15.73
2018-11-25T08:30:36.250Z,15.67
2018-11-25T08:33:05.944Z,16.03
2018-11-25T08:35:41.938Z,17.23
2018-11-25T08:41:00.099Z,16.57
2018-11-25T08:43:29.482Z,16.33
2018-11-25T08:45:58.811Z,15.93
2018-11-25T08:48:28.157Z,17.10
2018-11-25T08:50:57.474Z,16.50
2018-11-25T08:53:26.790Z,16.40
2018-11-25T08:55:56.139Z,14.43
2018-11-25T08:58:40.498Z,17.17
2018-11-25T09:01:22.295Z,15.07
2018-11-25T09:03:56.077Z,14.00
2018-11-25T09:06:31.016Z,14.50
2018-11-25T09:09:08.717Z,12.70
2018-11-25T09:11:43.754Z,13.97
2018-11-25T09:14:13.070Z,11.63
2018-11-25T09:16:48.400Z,13.60
2018-11-25T09:19:17.724Z,12.73
2018-11-25T09:21:48.147Z,12.83
2018-11-25T09:24:17.474Z,14.97
2018-11-25T09:26:46.834Z,14.50
2018-11-25T09:29:17.445Z,13.67
2018-11-25T09:31:47.659Z,19.13
2018-11-25T09:34:17.038Z,14.10
2018-11-25T09:36:47.045Z,12.13
2018-11-25T09:39:18.434Z,14.03
2018-11-25T09:41:47.822Z,12.90
2018-11-25T09:44:17.183Z,15.60
2018-11-25T09:46:46.536Z,14.47
2018-11-25T09:49:15.843Z,12.53
2018-11-25T09:51:47.283Z,14.27
2018-11-25T09:54:29.527Z,14.13
2018-11-25T09:56:58.866Z,13.23
2018-11-25T09:59:28.495Z,12.33
2018-11-25T10:01:57.839Z,10.90
2018-11-25T10:04:32.028Z,12.43
2018-11-25T10:07:01.928Z,12.03
2018-11-25T10:09:31.295Z,11.57
2018-11-25T10:12:01.506Z,11.43
2018-11-25T10:14:30.882Z,10.97
2018-11-25T10:17:01.286Z,11.07
2018-11-25T10:19:30.755Z,10.93
2018-11-25T10:22:06.626Z,10.77
2018-11-25T10:24:35.970Z,12.43
2018-11-25T10:27:18.559Z,10.53
2018-11-25T10:29:49.096Z,10.40
2018-11-25T10:32:18.591Z,11.47
2018-11-25T10:34:47.949Z,10.70
2018-11-25T10:37:20.647Z,10.83
2018-11-25T10:39:50.207Z,11.37
2018-11-25T10:42:19.754Z,11.43
2018-11-25T10:44:49.077Z,12.17
2018-11-25T10:47:19.562Z,11.50
2018-11-25T10:49:48.871Z,11.70
2018-11-25T10:52:18.233Z,12.30
2018-11-25T10:54:52.726Z,11.10
2018-11-25T10:57:22.187Z,11.50
2018-11-25T10:59:54.820Z,11.27
2018-11-25T11:02:29.311Z,11.90
2018-11-25T11:05:03.899Z,9.83
2018-11-25T11:07:41.812Z,10.93
2018-11-25T11:10:11.434Z,10.47
2018-11-25T11:12:51.162Z,13.43
2018-11-25T11:15:20.594Z,11.97
2018-11-25T11:17:59.796Z,10.03
2018-11-25T11:20:30.111Z,10.60
2018-11-25T11:22:59.598Z,10.67
2018-11-25T11:25:29.986Z,10.57
2018-11-25T11:28:08.852Z,10.73
2018-11-25T11:30:38.599Z,9.03
2018-11-25T11:33:08.822Z,9.53
2018-11-25T11:35:38.232Z,13.53
2018-11-25T11:38:07.573Z,10.07
2018-11-25T11:40:38.701Z,10.43
2018-11-25T11:43:09.036Z,10.37
2018-11-25T11:45:58.336Z,13.63
2018-11-25T11:48:30.529Z,10.07
2018-11-25T11:51:25.586Z,11.27
2018-11-25T11:53:52.031Z,10.47
2018-11-25T11:56:21.446Z,10.67
2018-11-25T11:58:50.751Z,12.40
2018-11-25T12:01:20.242Z,12.90
2018-11-25T12:03:56.898Z,11.87
2018-11-25T12:06:26.215Z,10.50
2018-11-25T12:08:55.569Z,10.17
2018-11-25T12:11:24.918Z,10.60
2018-11-25T12:13:54.255Z,9.60
2018-11-25T12:16:24.693Z,11.00
2018-11-25T12:18:54.039Z,11.13
2018-11-25T12:21:24.389Z,12.43
2018-11-25T12:23:53.941Z,12.80
2018-11-25T12:26:23.280Z,10.00
2018-11-25T12:29:13.111Z,11.83
2018-11-25T12:31:42.462Z,10.90
2018-11-25T12:34:11.778Z,10.20
2018-11-25T12:36:41.141Z,11.50
2018-11-25T12:39:10.650Z,14.33
2018-11-25T12:41:39.962Z,10.77
2018-11-25T12:44:09.627Z,14.87
2018-11-25T12:46:39.247Z,11.83
2018-11-25T12:49:08.583Z,9.80
2018-11-25T12:51:37.913Z,10.13
2018-11-25T12:54:07.503Z,10.60
2018-11-25T12:56:36.836Z,10.23
2018-11-25T12:59:06.487Z,10.50
2018-11-25T13:01:35.859Z,11.73
2018-11-25T13:04:05.399Z,11.23
2018-11-25T13:06:34.845Z,10.30
2018-11-25T13:09:06.212Z,12.07
2018-11-25T13:11:35.555Z,10.20
2018-11-25T13:14:04.983Z,10.47
2018-11-25T13:16:34.320Z,11.30
2018-11-25T13:19:03.666Z,10.17
2018-11-25T13:21:32.967Z,10.33
2018-11-25T13:24:08.249Z,10.67
2018-11-25T13:26:37.564Z,10.60
2018-11-25T13:29:07.593Z,12.00
2018-11-25T13:31:36.997Z,9.77
2018-11-25T13:34:06.549Z,10.87
2018-11-25T13:36:35.874Z,10.60
2018-11-25T13:39:08.694Z,9.93
2018-11-25T13:41:39.061Z,10.47
2018-11-25T13:44:08.403Z,9.20
2018-11-25T13:46:37.794Z,10.10
2018-11-25T13:49:07.142Z,9.43
2018-11-25T13:51:36.452Z,9.07
2018-11-25T13:54:05.794Z,7.63
2018-11-25T13:56:35.123Z,7.60
2018-11-25T13:59:04.479Z,6.83
2018-11-25T14:01:34.375Z,8.63
2018-11-25T14:04:03.859Z,7.50
2018-11-25T14:06:33.225Z,7.57
2018-11-25T14:09:03.064Z,6.93
2018-11-25T14:11:32.967Z,7.07
2018-11-25T14:14:01.731Z,6.10
2018-11-25T14:16:31.295Z,8.23
2018-11-25T14:19:00.608Z,8.17
2018-11-25T14:21:29.922Z,7.73
2018-11-25T14:23:59.238Z,6.47
2018-11-25T14:26:36.456Z,7.10
2018-11-25T14:29:06.144Z,9.80
2018-11-25T14:31:36.005Z,7.33
2018-11-25T14:34:05.805Z,7.27
2018-11-25T14:36:35.130Z,6.67
2018-11-25T14:39:08.198Z,6.43
2018-11-25T14:41:37.533Z,6.60
2018-11-25T14:44:09.271Z,7.53
2018-11-25T14:46:37.907Z,8.00
2018-11-25T14:49:08.320Z,7.30
2018-11-25T14:51:37.706Z,7.80
2018-11-25T14:54:07.423Z,9.20
2018-11-25T14:56:36.736Z,8.20
2018-11-25T14:59:06.066Z,9.03
2018-11-25T15:01:35.418Z,9.33
2018-11-25T15:04:05.398Z,7.67
2018-11-25T15:06:34.801Z,8.80
2018-11-25T15:09:05.488Z,8.03
2018-11-25T15:11:34.888Z,8.73
2018-11-25T15:14:04.230Z,8.17
2018-11-25T15:16:33.550Z,8.30
2018-11-25T15:19:03.895Z,7.43
2018-11-25T15:21:33.253Z,10.73
2018-11-25T15:24:02.546Z,7.67
2018-11-25T15:26:32.238Z,7.47
2018-11-25T15:29:01.618Z,8.20
2018-11-25T15:31:31.075Z,8.50
2018-11-25T15:34:00.411Z,8.20
2018-11-25T15:36:29.726Z,8.30
2018-11-25T15:39:01.281Z,8.77
2018-11-25T15:41:30.591Z,7.57
2018-11-25T15:44:00.088Z,9.17
2018-11-25T15:46:31.070Z,9.37
2018-11-25T15:49:00.403Z,7.70
2018-11-25T15:51:30.857Z,9.07
2018-11-25T15:54:00.839Z,8.43
2018-11-25T15:56:30.190Z,8.03
2018-11-25T15:58:59.589Z,8.50
2018-11-25T16:01:31.193Z,9.53
2018-11-25T16:04:00.533Z,8.40
2018-11-25T16:06:33.564Z,8.73
2018-11-25T16:09:03.161Z,9.73
2018-11-25T16:11:32.524Z,9.27
2018-11-25T16:14:01.879Z,8.90
2018-11-25T16:16:31.278Z,8.47
2018-11-25T16:19:00.680Z,8.67
2018-11-25T16:21:30.034Z,9.77
2018-11-25T16:24:07.915Z,8.50
2018-11-25T16:26:38.608Z,7.77
2018-11-25T16:29:17.835Z,8.87
2018-11-25T16:31:47.175Z,9.80
2018-11-25T16:34:16.737Z,9.20
2018-11-25T16:36:46.075Z,7.90
2018-11-25T16:39:15.444Z,8.80
2018-11-25T16:41:44.784Z,9.20
2018-11-25T16:44:14.135Z,8.57
2018-11-25T16:46:43.455Z,8.10
2018-11-25T16:49:13.671Z,8.63
2018-11-25T16:51:44.076Z,8.33
2018-11-25T16:54:13.377Z,8.03
2018-11-25T16:56:42.735Z,9.03
2018-11-25T16:59:12.091Z,9.93
2018-11-25T17:01:41.411Z,10.63
2018-11-25T17:04:10.748Z,12.07
2018-11-25T17:06:42.144Z,13.53
2018-11-25T17:09:13.157Z,10.43
2018-11-25T17:11:42.530Z,10.97
2018-11-25T17:14:11.834Z,8.63
2018-11-25T17:16:41.211Z,15.23
2018-11-25T17:19:10.569Z,8.87
2018-11-25T17:21:39.923Z,11.03
2018-11-25T17:24:09.255Z,8.63
2018-11-25T17:26:38.799Z,7.83
2018-11-25T17:29:08.183Z,9.30
2018-11-25T17:31:37.503Z,10.43
2018-11-25T17:34:07.194Z,9.93
2018-11-25T17:36:38.620Z,10.97
2018-11-25T17:39:09.578Z,11.30
2018-11-25T17:41:38.906Z,9.67
2018-11-25T17:44:08.239Z,8.67
2018-11-25T17:46:37.702Z,10.27
2018-11-25T17:49:07.879Z,8.57
2018-11-25T17:51:37.237Z,9.00
2018-11-25T17:54:07.021Z,10.10
2018-11-25T17:56:37.193Z,7.37
2018-11-25T17:59:06.847Z,8.83
2018-11-25T18:01:36.190Z,9.47
2018-11-25T18:04:06.206Z,8.47
2018-11-25T18:06:35.578Z,10.10
2018-11-25T18:09:12.518Z,9.10
2018-11-25T18:11:41.862Z,10.53
2018-11-25T18:14:11.634Z,10.37
2018-11-25T18:16:41.077Z,9.63
2018-11-25T18:22:16.876Z,10.20
2018-11-25T18:25:06.278Z,8.93
2018-11-25T18:27:36.082Z,9.00
2018-11-25T18:30:15.057Z,8.60
2018-11-25T18:32:45.612Z,8.00
2018-11-25T18:35:30.153Z,9.07
2018-11-25T18:37:59.713Z,8.03
2018-11-25T18:40:31.292Z,8.37
2018-11-25T18:43:00.979Z,8.30
2018-11-25T18:45:30.535Z,8.30
2018-11-25T18:48:00.215Z,8.93
2018-11-25T18:50:30.914Z,9.80
2018-11-25T18:53:00.330Z,9.87
2018-11-25T18:55:29.927Z,9.93
2018-11-25T18:57:59.252Z,8.17
2018-11-25T19:00:47.483Z,7.87
2018-11-25T19:03:16.816Z,8.47
2018-11-25T19:05:46.190Z,8.90
2018-11-25T19:08:15.556Z,7.60
2018-11-25T19:10:45.015Z,8.10
2018-11-25T19:13:16.017Z,9.53
2018-11-25T19:15:45.434Z,8.57
2018-11-25T19:18:14.791Z,10.83
2018-11-25T19:20:44.274Z,9.80
2018-11-25T19:23:13.679Z,10.50
2018-11-25T19:25:44.092Z,8.40
2018-11-25T19:28:14.547Z,7.70
2018-11-25T19:30:44.867Z,9.83
2018-11-25T19:33:14.466Z,7.87
2018-11-25T19:35:44.788Z,8.93
2018-11-25T19:38:14.238Z,8.40
2018-11-25T19:40:43.606Z,9.23
2018-11-25T19:43:13.267Z,9.63
2018-11-25T19:45:43.021Z,7.90
2018-11-25T19:48:16.754Z,7.90
2018-11-25T19:50:46.708Z,8.60
2018-11-25T19:53:16.296Z,6.43
2018-11-25T19:55:45.740Z,7.87
2018-11-25T19:58:26.155Z,9.03
2018-11-25T20:00:59.134Z,8.83
2018-11-25T20:03:30.834Z,7.27
2018-11-25T20:06:02.844Z,9.60
2018-11-25T20:08:50.298Z,8.20
2018-11-25T20:11:20.334Z,8.90
2018-11-25T20:13:53.525Z,7.83
2018-11-25T20:16:33.402Z,8.93
2018-11-25T20:19:14.968Z,8.20
2018-11-25T20:21:49.848Z,9.67
2018-11-25T20:24:19.835Z,8.37
2018-11-25T20:26:56.325Z,7.83
2018-11-25T20:29:26.613Z,12.23
2018-11-25T20:32:01.688Z,13.80
2018-11-25T20:34:31.734Z,10.83
2018-11-25T20:37:04.290Z,12.17
2018-11-25T20:39:37.384Z,9.47
2018-11-25T20:42:08.366Z,10.57
2018-11-25T20:44:37.747Z,9.73
2018-11-25T20:47:07.953Z,8.67
2018-11-25T20:49:37.605Z,8.57
2018-11-25T20:52:12.397Z,8.13
2018-11-25T20:54:45.160Z,8.87
2018-11-25T20:57:19.585Z,7.97
2018-11-25T20:59:49.354Z,7.53
2018-11-25T21:02:20.454Z,7.87
2018-11-25T21:04:48.550Z,7.57
2018-11-25T21:07:18.219Z,6.97
2018-11-25T21:09:47.976Z,8.33
2018-11-25T21:12:17.322Z,9.23
2018-11-25T21:14:46.758Z,8.93
2018-11-25T21:17:16.661Z,7.70
2018-11-25T21:19:46.574Z,8.70
2018-11-25T21:22:44.874Z,7.60
2018-11-25T21:25:16.920Z,7.30
2018-11-25T21:27:46.580Z,7.20
2018-11-25T21:30:18.508Z,8.40
2018-11-25T21:32:49.810Z,8.03
2018-11-25T21:35:19.207Z,7.47
2018-11-25T21:37:48.650Z,9.20
2018-11-25T21:40:23.858Z,9.13
2018-11-25T21:43:00.734Z,7.50
2018-11-25T21:45:35.026Z,8.97
2018-11-25T21:48:04.470Z,8.83
2018-11-25T21:50:33.841Z,8.97
2018-11-25T21:53:03.223Z,8.73
2018-11-25T21:55:35.727Z,7.77
2018-11-25T21:58:06.206Z,9.40
2018-11-25T22:00:35.772Z,8.37
2018-11-25T22:03:05.190Z,11.17
2018-11-25T22:05:37.694Z,8.00
2018-11-25T22:08:07.566Z,8.60
2018-11-25T22:10:39.030Z,9.80
2018-11-25T22:13:08.511Z,8.07
2018-11-25T22:15:37.971Z,7.83
2018-11-25T22:18:07.399Z,8.23
2018-11-25T22:20:37.129Z,8.73
2018-11-25T22:23:07.788Z,9.67
2018-11-25T22:25:37.278Z,9.43
2018-11-25T22:28:07.042Z,7.63
2018-11-25T22:30:36.479Z,8.77
2018-11-25T22:33:06.866Z,8.80
2018-11-25T22:35:36.762Z,7.60
2018-11-25T22:38:06.930Z,8.60
2018-11-25T22:40:36.294Z,8.77
2018-11-25T22:43:09.113Z,8.73
2018-11-25T22:45:38.594Z,8.40
2018-11-25T22:48:07.984Z,8.07
2018-11-25T22:50:37.485Z,8.80
2018-11-25T22:53:07.843Z,12.97
2018-11-25T22:55:37.271Z,9.10
2018-11-25T22:58:07.250Z,8.03
2018-11-25T23:00:37.612Z,9.50
2018-11-25T23:03:08.114Z,10.90
2018-11-25T23:06:58.082Z,8.40
2018-11-25T23:09:35.818Z,9.50
2018-11-25T23:12:09.082Z,8.37
2018-11-25T23:14:38.812Z,11.47
2018-11-25T23:17:15.905Z,10.23
2018-11-25T23:19:45.339Z,10.17
2018-11-25T23:22:15.244Z,13.07
2018-11-25T23:24:44.576Z,9.87
2018-11-25T23:27:25.042Z,11.37
2018-11-25T23:30:05.832Z,9.57
2018-11-25T23:32:35.491Z,9.37
2018-11-25T23:35:06.583Z,9.83
2018-11-25T23:37:36.261Z,8.87
2018-11-25T23:40:06.915Z,9.93
2018-11-25T23:42:36.588Z,8.83
2018-11-25T23:45:11.745Z,8.57
2018-11-25T23:47:43.433Z,9.90
2018-11-25T23:50:15.558Z,8.87
2018-11-25T23:52:51.860Z,12.27
2018-11-25T23:55:22.206Z,9.43
2018-11-25T23:57:52.905Z,10.30
